sensor_id;sensor_type;location;lat;lon;timestamp;temperature;humidity
51853;DHT22;37894;53.172;6.598;2022-08-19T00:01:52;15.10;99.90
51853;DHT22;37894;53.172;6.598;2022-08-19T00:04:21;15.10;99.90
51853;DHT22;37894;53.172;6.598;2022-08-19T00:06:47;15.10;99.90
51853;DHT22;37894;53.172;6.598;2022-08-19T00:09:15;15.00;99.90
51853;DHT22;37894;53.172;6.598;2022-08-19T00:11:42;15.20;99.90
51853;DHT22;37894;53.172;6.598;2022-08-19T00:14:10;15.20;99.90
51853;DHT22;37894;53.172;6.598;2022-08-19T00:16:41;15.00;99.90
51853;DHT22;37894;53.172;6.598;2022-08-19T00:19:09;14.90;99.90
51853;DHT22;37894;53.172;6.598;2022-08-19T00:21:35;15.20;99.90
51853;DHT22;37894;53.172;6.598;2022-08-19T00:24:05;14.90;99.90
51853;DHT22;37894;53.172;6.598;2022-08-19T00:26:31;14.80;99.90
51853;DHT22;37894;53.172;6.598;2022-08-19T00:28:57;14.80;99.90
51853;DHT22;37894;53.172;6.598;2022-08-19T00:31:22;14.80;99.90
51853;DHT22;37894;53.172;6.598;2022-08-19T00:33:48;14.80;99.90
51853;DHT22;37894;53.172;6.598;2022-08-19T00:36:17;14.80;99.90
51853;DHT22;37894;53.172;6.598;2022-08-19T00:38:43;15.00;99.90
51853;DHT22;37894;53.172;6.598;2022-08-19T00:41:14;14.70;99.90
51853;DHT22;37894;53.172;6.598;2022-08-19T00:43:40;15.00;99.90
51853;DHT22;37894;53.172;6.598;2022-08-19T00:46:06;14.70;99.90
51853;DHT22;37894;53.172;6.598;2022-08-19T00:48:33;14.60;99.90
51853;DHT22;37894;53.172;6.598;2022-08-19T00:51:00;14.60;99.90
51853;DHT22;37894;53.172;6.598;2022-08-19T00:53:28;14.30;99.90
51853;DHT22;37894;53.172;6.598;2022-08-19T00:55:58;16.50;99.90
51853;DHT22;37894;53.172;6.598;2022-08-19T00:58:28;14.50;99.90
51853;DHT22;37894;53.172;6.598;2022-08-19T01:00:55;14.50;99.90
51853;DHT22;37894;53.172;6.598;2022-08-19T01:03:22;14.50;99.90
51853;DHT22;37894;53.172;6.598;2022-08-19T01:05:49;13.30;99.90
51853;DHT22;37894;53.172;6.598;2022-08-19T01:08:17;14.40;99.90
51853;DHT22;37894;53.172;6.598;2022-08-19T01:10:52;14.30;99.90
51853;DHT22;37894;53.172;6.598;2022-08-19T01:13:21;14.40;99.90
51853;DHT22;37894;53.172;6.598;2022-08-19T01:15:58;14.40;99.90
51853;DHT22;37894;53.172;6.598;2022-08-19T01:18:25;14.40;99.90
51853;DHT22;37894;53.172;6.598;2022-08-19T01:20:54;14.40;99.90
51853;DHT22;37894;53.172;6.598;2022-08-19T01:23:21;15.00;99.90
51853;DHT22;37894;53.172;6.598;2022-08-19T01:25:49;14.40;99.90
51853;DHT22;37894;53.172;6.598;2022-08-19T01:28:25;14.40;99.90
51853;DHT22;37894;53.172;6.598;2022-08-19T01:30:52;14.40;99.90
51853;DHT22;37894;53.172;6.598;2022-08-19T01:33:21;14.40;99.90
51853;DHT22;37894;53.172;6.598;2022-08-19T01:35:47;14.40;99.90
51853;DHT22;37894;53.172;6.598;2022-08-19T01:38:25;14.30;99.90
51853;DHT22;37894;53.172;6.598;2022-08-19T01:40:51;14.30;99.90
51853;DHT22;37894;53.172;6.598;2022-08-19T01:43:18;14.30;99.90
51853;DHT22;37894;53.172;6.598;2022-08-19T01:45:45;14.30;99.90
51853;DHT22;37894;53.172;6.598;2022-08-19T01:48:11;14.30;99.90
51853;DHT22;37894;53.172;6.598;2022-08-19T01:50:37;13.40;99.90
51853;DHT22;37894;53.172;6.598;2022-08-19T01:53:06;14.30;99.90
51853;DHT22;37894;53.172;6.598;2022-08-19T01:55:33;14.20;99.90
51853;DHT22;37894;53.172;6.598;2022-08-19T01:58:02;14.20;99.90
51853;DHT22;37894;53.172;6.598;2022-08-19T02:00:31;14.20;99.90
51853;DHT22;37894;53.172;6.598;2022-08-19T02:02:57;14.20;99.90
51853;DHT22;37894;53.172;6.598;2022-08-19T02:05:23;14.20;99.90
51853;DHT22;37894;53.172;6.598;2022-08-19T02:07:49;14.60;99.90
51853;DHT22;37894;53.172;6.598;2022-08-19T02:10:19;14.40;99.90
51853;DHT22;37894;53.172;6.598;2022-08-19T02:12:45;14.20;99.90
51853;DHT22;37894;53.172;6.598;2022-08-19T02:15:11;14.20;99.90
51853;DHT22;37894;53.172;6.598;2022-08-19T02:17:37;14.10;99.90
51853;DHT22;37894;53.172;6.598;2022-08-19T02:20:03;14.10;99.90
51853;DHT22;37894;53.172;6.598;2022-08-19T02:22:29;14.10;99.90
51853;DHT22;37894;53.172;6.598;2022-08-19T02:24:55;14.10;99.90
51853;DHT22;37894;53.172;6.598;2022-08-19T02:27:22;14.00;99.90
51853;DHT22;37894;53.172;6.598;2022-08-19T02:29:48;14.00;99.90
51853;DHT22;37894;53.172;6.598;2022-08-19T02:32:15;14.00;99.90
51853;DHT22;37894;53.172;6.598;2022-08-19T02:34:41;12.60;99.90
51853;DHT22;37894;53.172;6.598;2022-08-19T02:37:06;13.90;99.90
51853;DHT22;37894;53.172;6.598;2022-08-19T02:39:52;13.90;99.90
51853;DHT22;37894;53.172;6.598;2022-08-19T02:42:18;13.80;99.90
51853;DHT22;37894;53.172;6.598;2022-08-19T02:44:43;13.80;99.90
51853;DHT22;37894;53.172;6.598;2022-08-19T02:47:10;13.80;99.90
51853;DHT22;37894;53.172;6.598;2022-08-19T02:49:36;13.80;99.90
51853;DHT22;37894;53.172;6.598;2022-08-19T02:52:02;15.10;99.90
51853;DHT22;37894;53.172;6.598;2022-08-19T02:54:28;13.90;99.90
51853;DHT22;37894;53.172;6.598;2022-08-19T02:56:54;13.80;99.90
51853;DHT22;37894;53.172;6.598;2022-08-19T02:59:20;14.70;99.90
51853;DHT22;37894;53.172;6.598;2022-08-19T03:01:46;13.80;99.90
51853;DHT22;37894;53.172;6.598;2022-08-19T03:04:13;14.10;99.90
51853;DHT22;37894;53.172;6.598;2022-08-19T03:06:41;13.80;99.90
51853;DHT22;37894;53.172;6.598;2022-08-19T03:09:08;13.80;99.90
51853;DHT22;37894;53.172;6.598;2022-08-19T03:11:34;14.60;99.90
51853;DHT22;37894;53.172;6.598;2022-08-19T03:14:01;14.60;99.90
51853;DHT22;37894;53.172;6.598;2022-08-19T03:16:39;12.70;99.90
51853;DHT22;37894;53.172;6.598;2022-08-19T03:19:05;14.20;99.90
51853;DHT22;37894;53.172;6.598;2022-08-19T03:21:33;13.90;99.90
51853;DHT22;37894;53.172;6.598;2022-08-19T03:24:02;14.70;99.90
51853;DHT22;37894;53.172;6.598;2022-08-19T03:26:29;13.90;99.90
51853;DHT22;37894;53.172;6.598;2022-08-19T03:28:56;14.90;99.90
51853;DHT22;37894;53.172;6.598;2022-08-19T03:31:22;13.90;99.90
51853;DHT22;37894;53.172;6.598;2022-08-19T03:33:49;13.60;99.90
51853;DHT22;37894;53.172;6.598;2022-08-19T03:36:18;13.90;99.90
51853;DHT22;37894;53.172;6.598;2022-08-19T03:38:49;13.80;99.90
51853;DHT22;37894;53.172;6.598;2022-08-19T03:41:18;13.80;99.90
51853;DHT22;37894;53.172;6.598;2022-08-19T03:43:45;13.80;99.90
51853;DHT22;37894;53.172;6.598;2022-08-19T03:46:20;13.90;99.90
51853;DHT22;37894;53.172;6.598;2022-08-19T03:48:48;13.90;99.90
51853;DHT22;37894;53.172;6.598;2022-08-19T03:51:28;14.00;99.90
51853;DHT22;37894;53.172;6.598;2022-08-19T03:53:55;13.90;99.90
51853;DHT22;37894;53.172;6.598;2022-08-19T03:56:21;13.90;99.90
51853;DHT22;37894;53.172;6.598;2022-08-19T03:58:48;13.90;99.90
51853;DHT22;37894;53.172;6.598;2022-08-19T04:01:18;13.90;99.90
51853;DHT22;37894;53.172;6.598;2022-08-19T04:03:45;14.00;99.90
51853;DHT22;37894;53.172;6.598;2022-08-19T04:06:15;14.00;99.90
51853;DHT22;37894;53.172;6.598;2022-08-19T04:08:42;13.90;99.90
51853;DHT22;37894;53.172;6.598;2022-08-19T04:11:14;14.00;99.90
51853;DHT22;37894;53.172;6.598;2022-08-19T04:13:40;13.20;99.90
51853;DHT22;37894;53.172;6.598;2022-08-19T04:16:06;14.00;99.90
51853;DHT22;37894;53.172;6.598;2022-08-19T04:18:35;14.10;99.90
51853;DHT22;37894;53.172;6.598;2022-08-19T04:21:01;14.20;99.90
51853;DHT22;37894;53.172;6.598;2022-08-19T04:23:27;13.80;99.90
51853;DHT22;37894;53.172;6.598;2022-08-19T04:25:54;13.90;99.90
51853;DHT22;37894;53.172;6.598;2022-08-19T04:28:20;13.80;99.90
51853;DHT22;37894;53.172;6.598;2022-08-19T04:30:49;13.80;99.90
51853;DHT22;37894;53.172;6.598;2022-08-19T04:33:19;13.80;99.90
51853;DHT22;37894;53.172;6.598;2022-08-19T04:35:47;13.80;99.90
51853;DHT22;37894;53.172;6.598;2022-08-19T04:38:17;13.80;99.90
51853;DHT22;37894;53.172;6.598;2022-08-19T04:40:48;13.80;99.90
51853;DHT22;37894;53.172;6.598;2022-08-19T04:43:34;13.80;99.90
51853;DHT22;37894;53.172;6.598;2022-08-19T04:46:08;13.90;99.90
51853;DHT22;37894;53.172;6.598;2022-08-19T04:48:35;13.90;99.90
51853;DHT22;37894;53.172;6.598;2022-08-19T04:51:05;13.90;99.90
51853;DHT22;37894;53.172;6.598;2022-08-19T04:53:33;13.80;99.90
51853;DHT22;37894;53.172;6.598;2022-08-19T04:55:59;13.80;99.90
51853;DHT22;37894;53.172;6.598;2022-08-19T04:58:29;13.80;99.90
51853;DHT22;37894;53.172;6.598;2022-08-19T05:00:55;14.80;99.90
51853;DHT22;37894;53.172;6.598;2022-08-19T05:03:21;13.80;99.90
51853;DHT22;37894;53.172;6.598;2022-08-19T05:05:48;14.10;99.90
51853;DHT22;37894;53.172;6.598;2022-08-19T05:08:18;13.90;99.90
51853;DHT22;37894;53.172;6.598;2022-08-19T05:10:49;13.90;99.90
51853;DHT22;37894;53.172;6.598;2022-08-19T05:13:17;13.90;99.90
51853;DHT22;37894;53.172;6.598;2022-08-19T05:15:44;13.90;99.90
51853;DHT22;37894;53.172;6.598;2022-08-19T05:18:10;13.90;99.90
51853;DHT22;37894;53.172;6.598;2022-08-19T05:20:54;13.90;99.90
51853;DHT22;37894;53.172;6.598;2022-08-19T05:23:38;14.90;99.90
51853;DHT22;37894;53.172;6.598;2022-08-19T05:26:04;14.00;99.90
51853;DHT22;37894;53.172;6.598;2022-08-19T05:28:30;13.40;99.90
51853;DHT22;37894;53.172;6.598;2022-08-19T05:30:56;14.10;99.90
51853;DHT22;37894;53.172;6.598;2022-08-19T05:33:22;14.30;99.90
51853;DHT22;37894;53.172;6.598;2022-08-19T05:35:49;14.30;99.90
51853;DHT22;37894;53.172;6.598;2022-08-19T05:38:16;14.40;99.90
51853;DHT22;37894;53.172;6.598;2022-08-19T05:40:42;14.50;99.90
51853;DHT22;37894;53.172;6.598;2022-08-19T05:43:12;15.10;99.90
51853;DHT22;37894;53.172;6.598;2022-08-19T05:45:42;14.60;99.90
51853;DHT22;37894;53.172;6.598;2022-08-19T05:48:09;14.70;99.90
51853;DHT22;37894;53.172;6.598;2022-08-19T05:50:38;15.00;99.90
51853;DHT22;37894;53.172;6.598;2022-08-19T05:53:04;14.90;99.90
51853;DHT22;37894;53.172;6.598;2022-08-19T05:55:30;15.00;99.90
51853;DHT22;37894;53.172;6.598;2022-08-19T05:57:56;15.10;99.90
51853;DHT22;37894;53.172;6.598;2022-08-19T06:00:21;15.20;99.90
51853;DHT22;37894;53.172;6.598;2022-08-19T06:02:48;16.50;99.90
51853;DHT22;37894;53.172;6.598;2022-08-19T06:05:14;15.40;99.90
51853;DHT22;37894;53.172;6.598;2022-08-19T06:07:40;15.50;99.90
51853;DHT22;37894;53.172;6.598;2022-08-19T06:10:08;15.70;99.90
51853;DHT22;37894;53.172;6.598;2022-08-19T06:12:35;15.70;99.90
51853;DHT22;37894;53.172;6.598;2022-08-19T06:15:07;15.80;99.90
51853;DHT22;37894;53.172;6.598;2022-08-19T06:17:37;15.90;99.90
51853;DHT22;37894;53.172;6.598;2022-08-19T06:20:08;15.60;99.90
51853;DHT22;37894;53.172;6.598;2022-08-19T06:22:47;16.00;99.90
51853;DHT22;37894;53.172;6.598;2022-08-19T06:25:15;16.10;99.90
51853;DHT22;37894;53.172;6.598;2022-08-19T06:27:41;16.20;99.90
51853;DHT22;37894;53.172;6.598;2022-08-19T06:30:07;16.40;99.90
51853;DHT22;37894;53.172;6.598;2022-08-19T06:32:33;16.50;99.90
51853;DHT22;37894;53.172;6.598;2022-08-19T06:34:59;16.70;99.90
51853;DHT22;37894;53.172;6.598;2022-08-19T06:37:24;16.80;99.90
51853;DHT22;37894;53.172;6.598;2022-08-19T06:39:50;16.70;99.90
51853;DHT22;37894;53.172;6.598;2022-08-19T06:42:16;17.00;99.90
51853;DHT22;37894;53.172;6.598;2022-08-19T06:44:46;17.50;99.90
51853;DHT22;37894;53.172;6.598;2022-08-19T06:47:14;17.30;99.90
51853;DHT22;37894;53.172;6.598;2022-08-19T06:49:41;17.40;99.90
51853;DHT22;37894;53.172;6.598;2022-08-19T06:52:08;17.50;99.90
51853;DHT22;37894;53.172;6.598;2022-08-19T06:54:33;17.50;99.90
51853;DHT22;37894;53.172;6.598;2022-08-19T06:57:00;17.90;99.90
51853;DHT22;37894;53.172;6.598;2022-08-19T06:59:30;17.70;99.90
51853;DHT22;37894;53.172;6.598;2022-08-19T07:01:59;17.90;99.90
51853;DHT22;37894;53.172;6.598;2022-08-19T07:04:28;18.20;99.90
51853;DHT22;37894;53.172;6.598;2022-08-19T07:09:24;18.30;99.90
51853;DHT22;37894;53.172;6.598;2022-08-19T07:11:51;18.40;99.90
51853;DHT22;37894;53.172;6.598;2022-08-19T07:14:20;18.60;99.90
51853;DHT22;37894;53.172;6.598;2022-08-19T07:16:49;18.60;99.90
51853;DHT22;37894;53.172;6.598;2022-08-19T07:19:17;18.90;99.90
51853;DHT22;37894;53.172;6.598;2022-08-19T07:21:43;18.80;99.90
51853;DHT22;37894;53.172;6.598;2022-08-19T07:24:09;18.90;99.90
51853;DHT22;37894;53.172;6.598;2022-08-19T07:26:41;19.00;99.90
51853;DHT22;37894;53.172;6.598;2022-08-19T07:29:07;19.10;99.90
51853;DHT22;37894;53.172;6.598;2022-08-19T07:31:33;19.30;99.90
51853;DHT22;37894;53.172;6.598;2022-08-19T07:34:08;19.40;99.90
51853;DHT22;37894;53.172;6.598;2022-08-19T07:36:37;19.40;99.90
51853;DHT22;37894;53.172;6.598;2022-08-19T07:39:15;19.60;99.90
51853;DHT22;37894;53.172;6.598;2022-08-19T07:41:42;19.90;99.90
51853;DHT22;37894;53.172;6.598;2022-08-19T07:44:09;19.90;99.90
51853;DHT22;37894;53.172;6.598;2022-08-19T07:46:36;19.90;99.90
51853;DHT22;37894;53.172;6.598;2022-08-19T07:49:04;20.00;99.90
51853;DHT22;37894;53.172;6.598;2022-08-19T07:51:30;20.10;99.90
51853;DHT22;37894;53.172;6.598;2022-08-19T07:53:56;20.20;99.90
51853;DHT22;37894;53.172;6.598;2022-08-19T07:56:23;20.30;99.90
51853;DHT22;37894;53.172;6.598;2022-08-19T07:58:50;20.50;99.90
51853;DHT22;37894;53.172;6.598;2022-08-19T08:01:20;20.60;99.90
51853;DHT22;37894;53.172;6.598;2022-08-19T08:03:47;20.70;99.90
51853;DHT22;37894;53.172;6.598;2022-08-19T08:06:31;20.80;99.90
51853;DHT22;37894;53.172;6.598;2022-08-19T08:09:21;20.90;99.90
51853;DHT22;37894;53.172;6.598;2022-08-19T08:11:52;21.00;99.90
51853;DHT22;37894;53.172;6.598;2022-08-19T08:14:31;21.20;99.90
51853;DHT22;37894;53.172;6.598;2022-08-19T08:16:58;21.20;99.90
51853;DHT22;37894;53.172;6.598;2022-08-19T08:19:25;21.30;99.90
51853;DHT22;37894;53.172;6.598;2022-08-19T08:21:53;21.30;99.90
51853;DHT22;37894;53.172;6.598;2022-08-19T08:24:19;21.40;99.90
51853;DHT22;37894;53.172;6.598;2022-08-19T08:26:45;21.60;99.90
51853;DHT22;37894;53.172;6.598;2022-08-19T08:29:12;21.60;99.90
51853;DHT22;37894;53.172;6.598;2022-08-19T08:31:40;21.80;99.90
51853;DHT22;37894;53.172;6.598;2022-08-19T08:34:06;21.90;99.90
51853;DHT22;37894;53.172;6.598;2022-08-19T08:36:32;22.00;99.90
51853;DHT22;37894;53.172;6.598;2022-08-19T08:38:59;22.20;99.90
51853;DHT22;37894;53.172;6.598;2022-08-19T08:44:27;22.40;99.90
51853;DHT22;37894;53.172;6.598;2022-08-19T08:46:59;22.50;99.90
51853;DHT22;37894;53.172;6.598;2022-08-19T08:49:29;22.70;99.90
51853;DHT22;37894;53.172;6.598;2022-08-19T08:52:07;22.80;99.90
51853;DHT22;37894;53.172;6.598;2022-08-19T08:54:44;22.90;99.90
51853;DHT22;37894;53.172;6.598;2022-08-19T08:57:15;23.00;99.90
51853;DHT22;37894;53.172;6.598;2022-08-19T08:59:47;23.20;99.90
51853;DHT22;37894;53.172;6.598;2022-08-19T09:02:17;23.30;99.90
51853;DHT22;37894;53.172;6.598;2022-08-19T09:04:43;23.30;99.90
51853;DHT22;37894;53.172;6.598;2022-08-19T09:07:26;23.40;99.90
51853;DHT22;37894;53.172;6.598;2022-08-19T09:10:24;23.50;99.90
51853;DHT22;37894;53.172;6.598;2022-08-19T09:15:39;23.80;99.90
51853;DHT22;37894;53.172;6.598;2022-08-19T09:18:06;23.80;99.90
51853;DHT22;37894;53.172;6.598;2022-08-19T09:20:33;23.90;99.90
51853;DHT22;37894;53.172;6.598;2022-08-19T09:22:59;24.00;99.90
51853;DHT22;37894;53.172;6.598;2022-08-19T09:25:25;24.10;99.90
51853;DHT22;37894;53.172;6.598;2022-08-19T09:27:52;24.10;99.90
51853;DHT22;37894;53.172;6.598;2022-08-19T09:30:27;24.20;99.90
51853;DHT22;37894;53.172;6.598;2022-08-19T09:32:54;24.30;99.90
51853;DHT22;37894;53.172;6.598;2022-08-19T09:35:26;24.40;99.90
51853;DHT22;37894;53.172;6.598;2022-08-19T09:37:54;24.50;99.90
51853;DHT22;37894;53.172;6.598;2022-08-19T09:40:20;24.60;99.90
51853;DHT22;37894;53.172;6.598;2022-08-19T09:42:46;24.70;99.90
51853;DHT22;37894;53.172;6.598;2022-08-19T09:45:17;24.70;99.90
51853;DHT22;37894;53.172;6.598;2022-08-19T09:47:43;24.70;99.90
51853;DHT22;37894;53.172;6.598;2022-08-19T09:50:10;24.70;99.90
51853;DHT22;37894;53.172;6.598;2022-08-19T09:52:36;24.80;99.90
51853;DHT22;37894;53.172;6.598;2022-08-19T09:55:08;24.90;99.90
51853;DHT22;37894;53.172;6.598;2022-08-19T09:57:34;25.00;99.90
51853;DHT22;37894;53.172;6.598;2022-08-19T10:00:00;25.10;99.90
51853;DHT22;37894;53.172;6.598;2022-08-19T10:02:26;25.20;99.90
51853;DHT22;37894;53.172;6.598;2022-08-19T10:04:52;25.30;99.90
51853;DHT22;37894;53.172;6.598;2022-08-19T10:07:37;25.40;99.90
51853;DHT22;37894;53.172;6.598;2022-08-19T10:10:04;25.40;99.90
51853;DHT22;37894;53.172;6.598;2022-08-19T10:12:31;25.50;99.90
51853;DHT22;37894;53.172;6.598;2022-08-19T10:14:58;25.60;99.90
51853;DHT22;37894;53.172;6.598;2022-08-19T10:17:23;25.60;99.90
51853;DHT22;37894;53.172;6.598;2022-08-19T10:19:51;25.70;99.90
51853;DHT22;37894;53.172;6.598;2022-08-19T10:22:18;25.80;99.90
51853;DHT22;37894;53.172;6.598;2022-08-19T10:24:45;25.90;99.90
51853;DHT22;37894;53.172;6.598;2022-08-19T10:27:11;26.00;99.90
51853;DHT22;37894;53.172;6.598;2022-08-19T10:29:38;26.00;99.90
51853;DHT22;37894;53.172;6.598;2022-08-19T10:32:06;26.10;99.90
51853;DHT22;37894;53.172;6.598;2022-08-19T10:34:33;26.30;99.90
51853;DHT22;37894;53.172;6.598;2022-08-19T10:36:59;26.40;99.90
51853;DHT22;37894;53.172;6.598;2022-08-19T10:39:26;26.50;99.90
51853;DHT22;37894;53.172;6.598;2022-08-19T10:41:55;26.60;99.90
51853;DHT22;37894;53.172;6.598;2022-08-19T10:44:21;26.70;99.90
51853;DHT22;37894;53.172;6.598;2022-08-19T10:46:48;26.80;99.90
51853;DHT22;37894;53.172;6.598;2022-08-19T10:49:14;26.90;99.90
51853;DHT22;37894;53.172;6.598;2022-08-19T10:51:40;27.00;99.90
51853;DHT22;37894;53.172;6.598;2022-08-19T10:54:26;26.90;99.90
51853;DHT22;37894;53.172;6.598;2022-08-19T10:57:12;27.00;99.90
51853;DHT22;37894;53.172;6.598;2022-08-19T10:59:37;27.00;99.90
51853;DHT22;37894;53.172;6.598;2022-08-19T11:02:08;27.10;99.90
51853;DHT22;37894;53.172;6.598;2022-08-19T11:04:39;27.20;99.90
51853;DHT22;37894;53.172;6.598;2022-08-19T11:07:06;27.40;99.90
51853;DHT22;37894;53.172;6.598;2022-08-19T11:09:40;27.60;99.90
51853;DHT22;37894;53.172;6.598;2022-08-19T11:12:06;27.80;99.90
51853;DHT22;37894;53.172;6.598;2022-08-19T11:14:34;27.90;99.90
51853;DHT22;37894;53.172;6.598;2022-08-19T11:16:59;28.00;99.90
51853;DHT22;37894;53.172;6.598;2022-08-19T11:19:25;27.90;99.90
51853;DHT22;37894;53.172;6.598;2022-08-19T11:21:52;27.90;99.90
51853;DHT22;37894;53.172;6.598;2022-08-19T11:24:22;27.80;99.90
51853;DHT22;37894;53.172;6.598;2022-08-19T11:26:51;27.90;99.90
51853;DHT22;37894;53.172;6.598;2022-08-19T11:29:21;27.90;99.90
51853;DHT22;37894;53.172;6.598;2022-08-19T11:31:51;27.90;99.90
51853;DHT22;37894;53.172;6.598;2022-08-19T11:34:22;28.00;99.90
51853;DHT22;37894;53.172;6.598;2022-08-19T11:36:50;28.10;99.90
51853;DHT22;37894;53.172;6.598;2022-08-19T11:39:19;28.30;99.90
51853;DHT22;37894;53.172;6.598;2022-08-19T11:41:45;28.40;99.90
51853;DHT22;37894;53.172;6.598;2022-08-19T11:44:11;28.60;99.90
51853;DHT22;37894;53.172;6.598;2022-08-19T11:46:40;28.80;99.60
51853;DHT22;37894;53.172;6.598;2022-08-19T11:49:07;29.00;98.80
51853;DHT22;37894;53.172;6.598;2022-08-19T11:51:35;29.20;99.40
51853;DHT22;37894;53.172;6.598;2022-08-19T11:54:00;29.30;99.50
51853;DHT22;37894;53.172;6.598;2022-08-19T11:56:27;29.20;99.60
51853;DHT22;37894;53.172;6.598;2022-08-19T11:58:54;29.10;99.20
51853;DHT22;37894;53.172;6.598;2022-08-19T12:01:23;28.70;98.10
51853;DHT22;37894;53.172;6.598;2022-08-19T12:03:50;28.60;98.50
51853;DHT22;37894;53.172;6.598;2022-08-19T12:06:20;28.40;98.60
51853;DHT22;37894;53.172;6.598;2022-08-19T12:08:49;28.20;98.90
51853;DHT22;37894;53.172;6.598;2022-08-19T12:11:15;28.00;98.20
51853;DHT22;37894;53.172;6.598;2022-08-19T12:13:42;27.90;98.40
51853;DHT22;37894;53.172;6.598;2022-08-19T12:16:30;27.80;97.80
51853;DHT22;37894;53.172;6.598;2022-08-19T12:18:58;27.70;98.20
51853;DHT22;37894;53.172;6.598;2022-08-19T12:21:28;27.40;97.30
51853;DHT22;37894;53.172;6.598;2022-08-19T12:23:56;27.30;98.10
51853;DHT22;37894;53.172;6.598;2022-08-19T12:26:23;27.20;98.60
51853;DHT22;37894;53.172;6.598;2022-08-19T12:28:49;27.10;98.60
51853;DHT22;37894;53.172;6.598;2022-08-19T12:31:15;27.00;98.60
51853;DHT22;37894;53.172;6.598;2022-08-19T12:33:42;27.00;99.20
51853;DHT22;37894;53.172;6.598;2022-08-19T12:36:09;27.00;98.80
51853;DHT22;37894;53.172;6.598;2022-08-19T12:38:36;27.10;99.90
51853;DHT22;37894;53.172;6.598;2022-08-19T12:41:03;27.20;99.90
51853;DHT22;37894;53.172;6.598;2022-08-19T12:43:35;27.20;99.50
51853;DHT22;37894;53.172;6.598;2022-08-19T12:46:01;27.20;99.50
51853;DHT22;37894;53.172;6.598;2022-08-19T12:48:28;27.10;99.30
51853;DHT22;37894;53.172;6.598;2022-08-19T12:50:54;27.20;99.90
51853;DHT22;37894;53.172;6.598;2022-08-19T12:53:20;27.30;99.90
51853;DHT22;37894;53.172;6.598;2022-08-19T12:55:46;27.40;99.90
51853;DHT22;37894;53.172;6.598;2022-08-19T12:58:11;27.40;99.90
51853;DHT22;37894;53.172;6.598;2022-08-19T13:00:38;27.40;99.90
51853;DHT22;37894;53.172;6.598;2022-08-19T13:03:04;27.40;99.90
51853;DHT22;37894;53.172;6.598;2022-08-19T13:05:31;27.40;99.90
51853;DHT22;37894;53.172;6.598;2022-08-19T13:07:59;27.30;99.90
51853;DHT22;37894;53.172;6.598;2022-08-19T13:10:31;28.90;99.90
51853;DHT22;37894;53.172;6.598;2022-08-19T13:13:01;27.40;99.40
51853;DHT22;37894;53.172;6.598;2022-08-19T13:15:28;27.40;99.90
51853;DHT22;37894;53.172;6.598;2022-08-19T13:17:57;27.40;99.90
51853;DHT22;37894;53.172;6.598;2022-08-19T13:20:23;27.30;99.90
51853;DHT22;37894;53.172;6.598;2022-08-19T13:22:49;27.30;99.90
51853;DHT22;37894;53.172;6.598;2022-08-19T13:25:16;27.30;99.90
51853;DHT22;37894;53.172;6.598;2022-08-19T13:27:43;27.10;99.90
51853;DHT22;37894;53.172;6.598;2022-08-19T13:30:12;27.00;99.90
51853;DHT22;37894;53.172;6.598;2022-08-19T13:32:56;27.00;99.90
51853;DHT22;37894;53.172;6.598;2022-08-19T13:35:39;26.90;99.90
51853;DHT22;37894;53.172;6.598;2022-08-19T13:38:05;26.90;99.90
51853;DHT22;37894;53.172;6.598;2022-08-19T13:40:32;26.90;99.90
51853;DHT22;37894;53.172;6.598;2022-08-19T13:43:02;26.90;99.90
51853;DHT22;37894;53.172;6.598;2022-08-19T13:45:29;26.90;99.90
51853;DHT22;37894;53.172;6.598;2022-08-19T13:47:57;26.90;99.90
51853;DHT22;37894;53.172;6.598;2022-08-19T13:50:26;26.80;99.90
51853;DHT22;37894;53.172;6.598;2022-08-19T13:52:53;26.70;99.90
51853;DHT22;37894;53.172;6.598;2022-08-19T13:55:20;26.60;99.90
51853;DHT22;37894;53.172;6.598;2022-08-19T13:57:46;26.60;99.90
51853;DHT22;37894;53.172;6.598;2022-08-19T14:00:16;26.40;99.90
51853;DHT22;37894;53.172;6.598;2022-08-19T14:02:46;26.30;99.90
51853;DHT22;37894;53.172;6.598;2022-08-19T14:05:14;26.10;99.90
51853;DHT22;37894;53.172;6.598;2022-08-19T14:07:40;25.90;99.90
51853;DHT22;37894;53.172;6.598;2022-08-19T14:10:08;25.70;99.90
51853;DHT22;37894;53.172;6.598;2022-08-19T14:12:40;25.60;99.90
51853;DHT22;37894;53.172;6.598;2022-08-19T14:15:11;25.50;99.90
51853;DHT22;37894;53.172;6.598;2022-08-19T14:17:43;25.50;99.90
51853;DHT22;37894;53.172;6.598;2022-08-19T14:20:14;25.60;99.90
51853;DHT22;37894;53.172;6.598;2022-08-19T14:22:41;25.30;99.90
51853;DHT22;37894;53.172;6.598;2022-08-19T14:25:14;25.30;99.90
51853;DHT22;37894;53.172;6.598;2022-08-19T14:27:41;25.20;99.90
51853;DHT22;37894;53.172;6.598;2022-08-19T14:30:09;25.10;99.90
51853;DHT22;37894;53.172;6.598;2022-08-19T14:32:36;25.00;99.90
51853;DHT22;37894;53.172;6.598;2022-08-19T14:35:03;24.90;99.90
51853;DHT22;37894;53.172;6.598;2022-08-19T14:37:29;24.80;99.90
51853;DHT22;37894;53.172;6.598;2022-08-19T14:39:55;24.80;99.90
51853;DHT22;37894;53.172;6.598;2022-08-19T14:42:20;24.80;99.90
51853;DHT22;37894;53.172;6.598;2022-08-19T14:44:46;24.90;99.90
51853;DHT22;37894;53.172;6.598;2022-08-19T14:47:12;24.90;99.90
51853;DHT22;37894;53.172;6.598;2022-08-19T14:49:37;24.90;99.90
51853;DHT22;37894;53.172;6.598;2022-08-19T14:52:05;24.90;99.90
51853;DHT22;37894;53.172;6.598;2022-08-19T14:54:31;24.80;99.90
51853;DHT22;37894;53.172;6.598;2022-08-19T14:56:56;24.80;99.90
51853;DHT22;37894;53.172;6.598;2022-08-19T14:59:23;24.70;99.90
51853;DHT22;37894;53.172;6.598;2022-08-19T15:01:48;24.70;99.90
51853;DHT22;37894;53.172;6.598;2022-08-19T15:04:14;24.80;99.90
51853;DHT22;37894;53.172;6.598;2022-08-19T15:06:39;24.80;99.90
51853;DHT22;37894;53.172;6.598;2022-08-19T15:09:08;24.80;99.90
51853;DHT22;37894;53.172;6.598;2022-08-19T15:11:34;24.90;99.90
51853;DHT22;37894;53.172;6.598;2022-08-19T15:14:00;24.90;99.90
51853;DHT22;37894;53.172;6.598;2022-08-19T15:16:27;25.00;99.90
51853;DHT22;37894;53.172;6.598;2022-08-19T15:18:55;25.10;99.90
51853;DHT22;37894;53.172;6.598;2022-08-19T15:21:23;25.10;99.90
51853;DHT22;37894;53.172;6.598;2022-08-19T15:23:50;25.20;99.90
51853;DHT22;37894;53.172;6.598;2022-08-19T15:26:18;25.20;99.90
51853;DHT22;37894;53.172;6.598;2022-08-19T15:28:44;25.20;99.90
51853;DHT22;37894;53.172;6.598;2022-08-19T15:31:11;25.20;99.90
51853;DHT22;37894;53.172;6.598;2022-08-19T15:33:38;25.20;99.90
51853;DHT22;37894;53.172;6.598;2022-08-19T15:36:09;25.20;99.90
51853;DHT22;37894;53.172;6.598;2022-08-19T15:38:34;25.20;99.90
51853;DHT22;37894;53.172;6.598;2022-08-19T15:41:02;25.10;99.90
51853;DHT22;37894;53.172;6.598;2022-08-19T15:43:47;25.00;99.90
51853;DHT22;37894;53.172;6.598;2022-08-19T15:46:17;25.10;99.90